EIN5XT EIDW-LEAL
Flight info
| Callsign | EIN5XT |
|---|---|
| Flight time | 2h 21m |
| Altitude | 37000 |
| Route | BEPAN2J BEPAN DCT BANBA DCT PAVLO/N0443F330 DCT DOLUR/N0446F370 DCT IDRIK DCT NENEM P152 PPN/N0450F380 M176 CMA/N0393F240 M176 CLS |
| Aircraft | A21N/M-SDE2E3FGHIRWXY/LB1 |
Departure
| Time | 2026-05-06 18:19 |
|---|---|
| Airport | Dublin Airport (EIDW) |
Arrival
| Time | 2026-05-06 20:41 |
|---|---|
| Airport | Alicante-Elche Miguel Hernández Airport (LEAL) |
| Time | Latitude | Longitude | Altitude | Speed | Heading |
|---|---|---|---|---|---|
| 2026-05-06 17:39 | 53.42415 | -6.24443 | 216 ft | 0 kts | 135° |
| 2026-05-06 18:06 | 53.42423 | -6.24455 | 216 ft | 4 kts | 139° |
| 2026-05-06 18:06 | 53.42444 | -6.24477 | 216 ft | 4 kts | 169° |
| 2026-05-06 18:06 | 53.42465 | -6.24477 | 216 ft | 4 kts | 193° |
| 2026-05-06 18:06 | 53.42482 | -6.24460 | 219 ft | 3 kts | 223° |
| 2026-05-06 18:07 | 53.42502 | -6.24432 | 216 ft | 4 kts | 215° |
| 2026-05-06 18:07 | 53.42518 | -6.24414 | 216 ft | 2 kts | 213° |
| 2026-05-06 18:12 | 53.42505 | -6.24429 | 216 ft | 5 kts | 215° |
| 2026-05-06 18:12 | 53.42470 | -6.24492 | 218 ft | 10 kts | 237° |
| 2026-05-06 18:12 | 53.42466 | -6.24630 | 216 ft | 15 kts | 267° |
| 2026-05-06 18:12 | 53.42378 | -6.24738 | 223 ft | 19 kts | 220° |
| 2026-05-06 18:13 | 53.42274 | -6.24914 | 219 ft | 23 kts | 227° |
| 2026-05-06 18:13 | 53.42203 | -6.25174 | 216 ft | 28 kts | 275° |
| 2026-05-06 18:13 | 53.42222 | -6.25506 | 223 ft | 16 kts | 275° |
| 2026-05-06 18:13 | 53.42232 | -6.25679 | 222 ft | 13 kts | 275° |
| 2026-05-06 18:14 | 53.42241 | -6.25838 | 216 ft | 15 kts | 275° |
| 2026-05-06 18:14 | 53.42250 | -6.26026 | 219 ft | 17 kts | 275° |
| 2026-05-06 18:14 | 53.42261 | -6.26231 | 216 ft | 19 kts | 275° |
| 2026-05-06 18:14 | 53.42275 | -6.26461 | 222 ft | 20 kts | 275° |
| 2026-05-06 18:15 | 53.42289 | -6.26703 | 216 ft | 22 kts | 275° |
| 2026-05-06 18:15 | 53.42303 | -6.26968 | 216 ft | 22 kts | 275° |
| 2026-05-06 18:15 | 53.42315 | -6.27192 | 216 ft | 20 kts | 275° |
| 2026-05-06 18:15 | 53.42327 | -6.27434 | 216 ft | 22 kts | 275° |
| 2026-05-06 18:16 | 53.42341 | -6.27694 | 220 ft | 23 kts | 275° |
| 2026-05-06 18:16 | 53.42356 | -6.27956 | 216 ft | 21 kts | 276° |
| 2026-05-06 18:16 | 53.42371 | -6.28205 | 216 ft | 22 kts | 275° |
| 2026-05-06 18:16 | 53.42384 | -6.28454 | 219 ft | 21 kts | 275° |
| 2026-05-06 18:17 | 53.42398 | -6.28705 | 216 ft | 22 kts | 275° |
| 2026-05-06 18:17 | 53.42410 | -6.28974 | 221 ft | 24 kts | 254° |
| 2026-05-06 18:17 | 53.42274 | -6.29074 | 215 ft | 22 kts | 178° |
| 2026-05-06 18:17 | 53.42236 | -6.28995 | 220 ft | 7 kts | 71° |
| 2026-05-06 18:18 | 53.42239 | -6.28956 | 215 ft | 1 kts | 94° |
| 2026-05-06 18:18 | 53.42238 | -6.28926 | 220 ft | 4 kts | 94° |
| 2026-05-06 18:18 | 53.42228 | -6.28732 | 216 ft | 51 kts | 95° |
| 2026-05-06 18:18 | 53.42170 | -6.27664 | 215 ft | 130 kts | 96° |
| 2026-05-06 18:19 | 53.42071 | -6.25879 | 439 ft | 166 kts | 97° |
| 2026-05-06 18:19 | 53.41948 | -6.23910 | 1252 ft | 170 kts | 97° |
| 2026-05-06 18:19 | 53.41829 | -6.21900 | 2042 ft | 178 kts | 97° |
| 2026-05-06 18:19 | 53.41708 | -6.19745 | 2709 ft | 193 kts | 97° |
| 2026-05-06 18:20 | 53.41578 | -6.17454 | 3405 ft | 206 kts | 97° |
| 2026-05-06 18:20 | 53.41438 | -6.14982 | 4121 ft | 220 kts | 97° |
| 2026-05-06 18:20 | 53.41292 | -6.12345 | 4848 ft | 232 kts | 96° |
| 2026-05-06 18:20 | 53.41144 | -6.09607 | 5693 ft | 238 kts | 96° |
| 2026-05-06 18:21 | 53.40990 | -6.06820 | 6545 ft | 243 kts | 96° |
| 2026-05-06 18:21 | 53.40818 | -6.03976 | 7385 ft | 248 kts | 100° |
| 2026-05-06 18:21 | 53.40158 | -6.01236 | 7883 ft | 263 kts | 130° |
| 2026-05-06 18:21 | 53.38726 | -5.99333 | 8572 ft | 267 kts | 159° |
| 2026-05-06 18:22 | 53.36913 | -5.98800 | 9414 ft | 267 kts | 186° |
| 2026-05-06 18:22 | 53.35073 | -5.99347 | 10286 ft | 270 kts | 194° |
| 2026-05-06 18:22 | 53.33235 | -6.00070 | 11150 ft | 274 kts | 195° |
| 2026-05-06 18:22 | 53.31320 | -6.00794 | 11704 ft | 293 kts | 194° |
| 2026-05-06 18:23 | 53.29244 | -6.01550 | 12051 ft | 317 kts | 194° |
| 2026-05-06 18:23 | 53.27049 | -6.02574 | 12360 ft | 339 kts | 199° |
| 2026-05-06 18:23 | 53.24729 | -6.03778 | 12703 ft | 358 kts | 199° |
| 2026-05-06 18:23 | 53.22315 | -6.05018 | 13344 ft | 366 kts | 199° |
| 2026-05-06 18:24 | 53.19856 | -6.06218 | 14076 ft | 371 kts | 195° |
| 2026-05-06 18:24 | 53.17316 | -6.06856 | 14789 ft | 376 kts | 188° |
| 2026-05-06 18:24 | 53.14688 | -6.07288 | 15467 ft | 381 kts | 187° |
| 2026-05-06 18:24 | 53.12035 | -6.07748 | 16119 ft | 384 kts | 190° |
| 2026-05-06 18:25 | 53.09446 | -6.08853 | 16743 ft | 386 kts | 200° |
| 2026-05-06 18:25 | 53.06902 | -6.10353 | 17341 ft | 390 kts | 202° |
| 2026-05-06 18:25 | 53.04344 | -6.11900 | 17921 ft | 393 kts | 202° |
| 2026-05-06 18:25 | 53.01750 | -6.13460 | 18489 ft | 397 kts | 201° |
| 2026-05-06 18:26 | 52.99141 | -6.15015 | 19022 ft | 401 kts | 201° |
| 2026-05-06 18:26 | 52.96501 | -6.16578 | 19552 ft | 405 kts | 201° |
| 2026-05-06 18:26 | 52.93765 | -6.17782 | 20065 ft | 411 kts | 191° |
| 2026-05-06 18:26 | 52.90921 | -6.18433 | 20583 ft | 415 kts | 189° |
| 2026-05-06 18:27 | 52.88040 | -6.19017 | 21082 ft | 419 kts | 189° |
| 2026-05-06 18:27 | 52.85175 | -6.19603 | 21569 ft | 422 kts | 189° |
| 2026-05-06 18:27 | 52.82243 | -6.20211 | 22072 ft | 426 kts | 189° |
| 2026-05-06 18:27 | 52.79297 | -6.20828 | 22562 ft | 429 kts | 189° |
| 2026-05-06 18:28 | 52.76317 | -6.21454 | 23051 ft | 433 kts | 189° |
| 2026-05-06 18:28 | 52.73314 | -6.22082 | 23531 ft | 436 kts | 189° |
| 2026-05-06 18:28 | 52.70295 | -6.22716 | 24021 ft | 440 kts | 189° |
| 2026-05-06 18:28 | 52.67240 | -6.23354 | 24502 ft | 443 kts | 189° |
| 2026-05-06 18:29 | 52.64165 | -6.24001 | 24943 ft | 447 kts | 189° |
| 2026-05-06 18:29 | 52.61065 | -6.24646 | 25368 ft | 451 kts | 188° |
| 2026-05-06 18:29 | 52.57945 | -6.25302 | 25818 ft | 454 kts | 188° |
| 2026-05-06 18:29 | 52.54793 | -6.25966 | 26230 ft | 458 kts | 188° |
| 2026-05-06 18:30 | 52.51646 | -6.26358 | 26622 ft | 462 kts | 181° |
| 2026-05-06 18:30 | 52.48401 | -6.26261 | 27021 ft | 466 kts | 179° |
| 2026-05-06 18:30 | 52.45151 | -6.26112 | 27407 ft | 469 kts | 179° |
| 2026-05-06 18:30 | 52.41875 | -6.25962 | 27771 ft | 472 kts | 179° |
| 2026-05-06 18:31 | 52.38590 | -6.25821 | 28188 ft | 473 kts | 179° |
| 2026-05-06 18:31 | 52.35297 | -6.25672 | 28649 ft | 472 kts | 179° |
| 2026-05-06 18:31 | 52.32010 | -6.25531 | 29070 ft | 472 kts | 179° |
| 2026-05-06 18:31 | 52.28722 | -6.25390 | 29526 ft | 472 kts | 179° |
| 2026-05-06 18:32 | 52.25437 | -6.25243 | 29947 ft | 472 kts | 179° |
| 2026-05-06 18:32 | 52.22154 | -6.25098 | 30358 ft | 471 kts | 179° |
| 2026-05-06 18:32 | 52.18920 | -6.24956 | 30779 ft | 470 kts | 179° |
| 2026-05-06 18:32 | 52.15656 | -6.24817 | 31191 ft | 470 kts | 179° |
| 2026-05-06 18:33 | 52.12384 | -6.24675 | 31594 ft | 470 kts | 178° |
| 2026-05-06 18:33 | 52.09123 | -6.24535 | 32000 ft | 469 kts | 179° |
| 2026-05-06 18:33 | 52.05862 | -6.24400 | 32383 ft | 468 kts | 179° |
| 2026-05-06 18:33 | 52.02599 | -6.24261 | 32758 ft | 468 kts | 178° |
| 2026-05-06 18:34 | 51.99339 | -6.24123 | 33120 ft | 467 kts | 178° |
| 2026-05-06 18:34 | 51.96099 | -6.23940 | 33425 ft | 467 kts | 175° |
| 2026-05-06 18:34 | 51.92885 | -6.23175 | 33731 ft | 467 kts | 168° |
| 2026-05-06 18:34 | 51.89711 | -6.22098 | 34057 ft | 466 kts | 167° |
| 2026-05-06 18:35 | 51.86536 | -6.20987 | 34353 ft | 465 kts | 167° |
| 2026-05-06 18:35 | 51.83375 | -6.19868 | 34663 ft | 465 kts | 167° |
| 2026-05-06 18:35 | 51.80216 | -6.18761 | 34920 ft | 465 kts | 167° |
| 2026-05-06 18:35 | 51.77054 | -6.17666 | 35206 ft | 464 kts | 168° |
| 2026-05-06 18:36 | 51.73940 | -6.16597 | 35469 ft | 463 kts | 168° |
| 2026-05-06 18:36 | 51.70785 | -6.15520 | 35700 ft | 464 kts | 168° |
| 2026-05-06 18:36 | 51.67629 | -6.14447 | 35915 ft | 464 kts | 168° |
| 2026-05-06 18:36 | 51.64474 | -6.13372 | 36159 ft | 463 kts | 168° |
| 2026-05-06 18:37 | 51.61322 | -6.12303 | 36363 ft | 463 kts | 168° |
| 2026-05-06 18:37 | 51.59189 | -6.11584 | 36491 ft | 463 kts | 168° |
| 2026-05-06 18:37 | 51.55010 | -6.10174 | 36788 ft | 462 kts | 168° |
| 2026-05-06 18:37 | 51.51875 | -6.09107 | 37007 ft | 459 kts | 168° |
| 2026-05-06 18:38 | 51.45670 | -6.07001 | 37026 ft | 454 kts | 168° |
| 2026-05-06 18:38 | 51.39481 | -6.04925 | 37014 ft | 453 kts | 169° |
| 2026-05-06 18:39 | 51.33308 | -6.02844 | 37011 ft | 453 kts | 168° |
| 2026-05-06 18:40 | 51.24046 | -5.99740 | 37011 ft | 453 kts | 169° |
| 2026-05-06 18:40 | 51.17920 | -5.97699 | 37010 ft | 452 kts | 169° |
| 2026-05-06 18:41 | 51.11761 | -5.95651 | 37010 ft | 452 kts | 169° |
| 2026-05-06 18:41 | 51.05612 | -5.93612 | 37011 ft | 451 kts | 169° |
| 2026-05-06 18:42 | 50.99462 | -5.91575 | 37010 ft | 451 kts | 169° |
| 2026-05-06 18:42 | 50.93339 | -5.89432 | 37009 ft | 451 kts | 164° |
| 2026-05-06 18:43 | 50.87468 | -5.86062 | 37011 ft | 452 kts | 160° |
| 2026-05-06 18:43 | 50.81599 | -5.82534 | 37010 ft | 451 kts | 160° |
| 2026-05-06 18:44 | 50.75714 | -5.79040 | 37001 ft | 451 kts | 161° |
| 2026-05-06 18:44 | 50.69847 | -5.75567 | 37000 ft | 450 kts | 160° |
| 2026-05-06 18:45 | 50.63976 | -5.72102 | 37000 ft | 450 kts | 161° |
| 2026-05-06 18:45 | 50.58104 | -5.68651 | 36999 ft | 449 kts | 161° |
| 2026-05-06 18:46 | 50.52233 | -5.65233 | 36997 ft | 450 kts | 161° |
| 2026-05-06 18:46 | 50.46411 | -5.61835 | 36992 ft | 450 kts | 161° |
| 2026-05-06 18:47 | 50.40555 | -5.58410 | 36992 ft | 449 kts | 161° |
| 2026-05-06 18:47 | 50.34681 | -5.54995 | 36999 ft | 449 kts | 161° |
| 2026-05-06 18:48 | 50.28821 | -5.51597 | 37000 ft | 449 kts | 161° |
| 2026-05-06 18:48 | 50.22960 | -5.48215 | 37000 ft | 449 kts | 161° |
| 2026-05-06 18:49 | 50.17102 | -5.44825 | 37002 ft | 449 kts | 161° |
| 2026-05-06 18:49 | 50.12231 | -5.42012 | 36999 ft | 449 kts | 161° |
| 2026-05-06 18:50 | 50.06376 | -5.38643 | 37000 ft | 449 kts | 161° |
| 2026-05-06 18:50 | 50.00517 | -5.35274 | 36990 ft | 449 kts | 161° |
| 2026-05-06 18:51 | 49.94657 | -5.31898 | 36992 ft | 448 kts | 161° |
| 2026-05-06 18:51 | 49.88844 | -5.28576 | 36996 ft | 448 kts | 161° |
| 2026-05-06 18:52 | 49.82952 | -5.25222 | 36989 ft | 448 kts | 161° |
| 2026-05-06 18:52 | 49.77134 | -5.21913 | 36998 ft | 448 kts | 161° |
| 2026-05-06 18:53 | 49.71271 | -5.18603 | 36999 ft | 448 kts | 161° |
| 2026-05-06 18:53 | 49.65409 | -5.15299 | 37000 ft | 448 kts | 161° |
| 2026-05-06 18:54 | 49.59536 | -5.12001 | 36999 ft | 449 kts | 161° |
| 2026-05-06 18:54 | 49.53669 | -5.08724 | 37002 ft | 448 kts | 161° |
| 2026-05-06 18:55 | 49.47867 | -5.05328 | 36998 ft | 449 kts | 156° |
| 2026-05-06 18:55 | 49.42271 | -5.00995 | 37000 ft | 450 kts | 154° |
| 2026-05-06 18:56 | 49.36708 | -4.96606 | 36995 ft | 450 kts | 154° |
| 2026-05-06 18:56 | 49.31128 | -4.92253 | 36996 ft | 450 kts | 154° |
| 2026-05-06 18:57 | 49.25548 | -4.87920 | 37000 ft | 450 kts | 154° |
| 2026-05-06 18:57 | 49.19962 | -4.83586 | 37000 ft | 450 kts | 154° |
| 2026-05-06 18:58 | 49.14372 | -4.79265 | 37000 ft | 450 kts | 154° |
| 2026-05-06 18:58 | 49.08777 | -4.74960 | 37000 ft | 450 kts | 154° |
| 2026-05-06 18:59 | 49.03221 | -4.70691 | 37000 ft | 450 kts | 154° |
| 2026-05-06 18:59 | 48.97622 | -4.66398 | 36998 ft | 450 kts | 155° |
| 2026-05-06 19:00 | 48.92028 | -4.62125 | 36990 ft | 449 kts | 155° |
| 2026-05-06 19:00 | 48.86438 | -4.57867 | 36990 ft | 449 kts | 154° |
| 2026-05-06 19:01 | 48.80888 | -4.53636 | 36990 ft | 449 kts | 154° |
| 2026-05-06 19:01 | 48.75292 | -4.49385 | 36990 ft | 449 kts | 154° |
| 2026-05-06 19:02 | 48.69694 | -4.45152 | 36990 ft | 449 kts | 155° |
| 2026-05-06 19:02 | 48.64089 | -4.40925 | 36990 ft | 450 kts | 155° |
| 2026-05-06 19:03 | 48.58479 | -4.36707 | 36990 ft | 450 kts | 155° |
| 2026-05-06 19:03 | 48.52865 | -4.32486 | 36990 ft | 450 kts | 155° |
| 2026-05-06 19:04 | 48.47286 | -4.28304 | 36990 ft | 450 kts | 155° |
| 2026-05-06 19:04 | 48.41639 | -4.24074 | 36990 ft | 450 kts | 155° |
| 2026-05-06 19:05 | 48.36065 | -4.19924 | 36990 ft | 450 kts | 155° |
| 2026-05-06 19:05 | 48.30457 | -4.15756 | 36992 ft | 450 kts | 155° |
| 2026-05-06 19:06 | 48.24848 | -4.11585 | 36989 ft | 450 kts | 155° |
| 2026-05-06 19:06 | 48.19230 | -4.07447 | 36989 ft | 450 kts | 155° |
| 2026-05-06 19:07 | 48.13613 | -4.03307 | 36990 ft | 450 kts | 155° |
| 2026-05-06 19:07 | 48.07990 | -3.99172 | 36990 ft | 450 kts | 155° |
| 2026-05-06 19:08 | 48.02362 | -3.95050 | 36990 ft | 450 kts | 155° |
| 2026-05-06 19:08 | 47.96747 | -3.90931 | 36991 ft | 450 kts | 155° |
| 2026-05-06 19:09 | 47.91123 | -3.86816 | 36990 ft | 450 kts | 155° |
| 2026-05-06 19:09 | 47.85535 | -3.82728 | 36990 ft | 450 kts | 155° |
| 2026-05-06 19:10 | 47.79912 | -3.78643 | 36990 ft | 450 kts | 155° |
| 2026-05-06 19:10 | 47.74287 | -3.74557 | 36993 ft | 450 kts | 155° |
| 2026-05-06 19:11 | 47.68656 | -3.70451 | 36990 ft | 450 kts | 155° |
| 2026-05-06 19:11 | 47.63030 | -3.66376 | 36990 ft | 450 kts | 155° |
| 2026-05-06 19:12 | 47.57092 | -3.63649 | 36990 ft | 447 kts | 174° |
| 2026-05-06 19:12 | 47.50908 | -3.62774 | 36991 ft | 446 kts | 176° |
| 2026-05-06 19:13 | 47.44756 | -3.61927 | 36989 ft | 446 kts | 176° |
| 2026-05-06 19:13 | 47.38565 | -3.61023 | 36990 ft | 446 kts | 176° |
| 2026-05-06 19:14 | 47.32383 | -3.60120 | 36990 ft | 446 kts | 176° |
| 2026-05-06 19:14 | 47.26230 | -3.59223 | 36990 ft | 446 kts | 176° |
| 2026-05-06 19:15 | 47.20054 | -3.58345 | 36991 ft | 446 kts | 176° |
| 2026-05-06 19:15 | 47.13871 | -3.57458 | 36988 ft | 447 kts | 176° |
| 2026-05-06 19:16 | 47.07687 | -3.56532 | 36990 ft | 447 kts | 176° |
| 2026-05-06 19:16 | 47.01500 | -3.55633 | 36991 ft | 447 kts | 176° |
| 2026-05-06 19:17 | 46.95303 | -3.54738 | 36990 ft | 447 kts | 176° |
| 2026-05-06 19:17 | 46.89111 | -3.53852 | 36990 ft | 446 kts | 176° |
| 2026-05-06 19:18 | 46.82966 | -3.52968 | 36990 ft | 447 kts | 176° |
| 2026-05-06 19:18 | 46.76778 | -3.52077 | 36995 ft | 446 kts | 176° |
| 2026-05-06 19:19 | 46.70588 | -3.51196 | 37000 ft | 447 kts | 176° |
| 2026-05-06 19:19 | 46.64405 | -3.50315 | 37000 ft | 447 kts | 176° |
| 2026-05-06 19:20 | 46.58222 | -3.49434 | 37000 ft | 447 kts | 176° |
| 2026-05-06 19:20 | 46.52035 | -3.48566 | 36999 ft | 446 kts | 176° |
| 2026-05-06 19:21 | 46.45847 | -3.47683 | 37001 ft | 446 kts | 176° |
| 2026-05-06 19:21 | 46.39663 | -3.46813 | 37000 ft | 446 kts | 176° |
| 2026-05-06 19:22 | 46.33474 | -3.45940 | 37000 ft | 446 kts | 176° |
| 2026-05-06 19:22 | 46.27333 | -3.45074 | 37000 ft | 446 kts | 176° |
| 2026-05-06 19:23 | 46.21146 | -3.44204 | 36993 ft | 446 kts | 176° |
| 2026-05-06 19:23 | 46.14965 | -3.43335 | 36990 ft | 446 kts | 176° |
| 2026-05-06 19:24 | 46.08781 | -3.42469 | 36990 ft | 446 kts | 176° |
| 2026-05-06 19:24 | 46.02599 | -3.41612 | 36991 ft | 447 kts | 176° |
| 2026-05-06 19:25 | 45.96398 | -3.40751 | 36991 ft | 446 kts | 176° |
| 2026-05-06 19:25 | 45.90214 | -3.39897 | 36990 ft | 446 kts | 176° |
| 2026-05-06 19:26 | 45.84063 | -3.39044 | 36990 ft | 446 kts | 176° |
| 2026-05-06 19:26 | 45.77885 | -3.38182 | 36990 ft | 446 kts | 176° |
| 2026-05-06 19:27 | 45.71694 | -3.37332 | 36992 ft | 447 kts | 176° |
| 2026-05-06 19:27 | 45.65510 | -3.36480 | 37000 ft | 447 kts | 176° |
| 2026-05-06 19:28 | 45.59312 | -3.35635 | 37001 ft | 447 kts | 176° |
| 2026-05-06 19:28 | 45.53129 | -3.34778 | 37000 ft | 446 kts | 176° |
| 2026-05-06 19:29 | 45.46986 | -3.33936 | 37001 ft | 446 kts | 176° |
| 2026-05-06 19:29 | 45.40795 | -3.33091 | 37001 ft | 446 kts | 176° |
| 2026-05-06 19:30 | 45.34606 | -3.32242 | 37001 ft | 446 kts | 176° |
| 2026-05-06 19:30 | 45.28428 | -3.31388 | 37001 ft | 446 kts | 176° |
| 2026-05-06 19:31 | 45.22246 | -3.30533 | 37009 ft | 446 kts | 176° |
| 2026-05-06 19:31 | 45.12973 | -3.29287 | 37011 ft | 446 kts | 176° |
| 2026-05-06 19:32 | 45.06827 | -3.28465 | 37010 ft | 446 kts | 176° |
| 2026-05-06 19:32 | 45.00606 | -3.27624 | 37010 ft | 446 kts | 176° |
| 2026-05-06 19:33 | 44.94467 | -3.26807 | 37010 ft | 446 kts | 177° |
| 2026-05-06 19:33 | 44.88277 | -3.25985 | 37010 ft | 446 kts | 177° |
| 2026-05-06 19:34 | 44.82102 | -3.25150 | 37010 ft | 446 kts | 177° |
| 2026-05-06 19:34 | 44.75921 | -3.24319 | 37015 ft | 446 kts | 177° |
| 2026-05-06 19:35 | 44.69749 | -3.23499 | 37020 ft | 446 kts | 177° |
| 2026-05-06 19:35 | 44.63572 | -3.22679 | 37019 ft | 446 kts | 177° |
| 2026-05-06 19:36 | 44.57399 | -3.21867 | 37021 ft | 446 kts | 177° |
| 2026-05-06 19:36 | 44.51219 | -3.21049 | 37020 ft | 446 kts | 177° |
| 2026-05-06 19:37 | 44.46089 | -3.20364 | 37021 ft | 446 kts | 177° |
| 2026-05-06 19:37 | 44.39902 | -3.19569 | 37020 ft | 445 kts | 177° |
| 2026-05-06 19:38 | 44.33728 | -3.18773 | 37019 ft | 445 kts | 177° |
| 2026-05-06 19:38 | 44.27558 | -3.17966 | 37020 ft | 446 kts | 177° |
| 2026-05-06 19:39 | 44.21377 | -3.17161 | 37020 ft | 445 kts | 177° |
| 2026-05-06 19:39 | 44.15239 | -3.16363 | 37021 ft | 446 kts | 177° |
| 2026-05-06 19:40 | 44.09065 | -3.15528 | 37019 ft | 447 kts | 175° |
| 2026-05-06 19:40 | 44.06024 | -3.14578 | 37016 ft | 450 kts | 163° |
| 2026-05-06 19:40 | 44.03178 | -3.12747 | 37019 ft | 454 kts | 150° |
| 2026-05-06 19:41 | 43.98188 | -3.07327 | 37025 ft | 456 kts | 142° |
| 2026-05-06 19:41 | 43.93295 | -3.01687 | 37020 ft | 456 kts | 143° |
| 2026-05-06 19:42 | 43.88399 | -2.96167 | 37020 ft | 456 kts | 143° |
| 2026-05-06 19:42 | 43.83460 | -2.90644 | 37021 ft | 456 kts | 143° |
| 2026-05-06 19:43 | 43.78519 | -2.85116 | 37020 ft | 456 kts | 143° |
| 2026-05-06 19:43 | 43.73583 | -2.79602 | 37020 ft | 456 kts | 143° |
| 2026-05-06 19:44 | 43.68637 | -2.74092 | 37020 ft | 456 kts | 143° |
| 2026-05-06 19:44 | 43.63695 | -2.68596 | 37020 ft | 456 kts | 143° |
| 2026-05-06 19:45 | 43.58757 | -2.63110 | 37021 ft | 457 kts | 143° |
| 2026-05-06 19:45 | 43.53817 | -2.57655 | 37020 ft | 457 kts | 144° |
| 2026-05-06 19:46 | 43.48855 | -2.52189 | 37020 ft | 457 kts | 143° |
| 2026-05-06 19:46 | 43.43893 | -2.46719 | 37021 ft | 457 kts | 143° |
| 2026-05-06 19:47 | 43.38930 | -2.41254 | 37020 ft | 456 kts | 144° |
| 2026-05-06 19:47 | 43.33965 | -2.35801 | 37020 ft | 457 kts | 144° |
| 2026-05-06 19:48 | 43.28996 | -2.30360 | 37021 ft | 456 kts | 144° |
| 2026-05-06 19:48 | 43.24028 | -2.24930 | 37022 ft | 457 kts | 144° |
| 2026-05-06 19:49 | 43.19090 | -2.19544 | 37021 ft | 456 kts | 144° |
| 2026-05-06 19:49 | 43.14113 | -2.14133 | 37022 ft | 456 kts | 144° |
| 2026-05-06 19:50 | 43.09219 | -2.08821 | 37020 ft | 456 kts | 144° |
| 2026-05-06 19:50 | 43.04168 | -2.03332 | 37020 ft | 456 kts | 144° |
| 2026-05-06 19:51 | 42.99191 | -1.97946 | 37020 ft | 456 kts | 145° |
| 2026-05-06 19:51 | 42.94204 | -1.92567 | 37020 ft | 457 kts | 145° |
| 2026-05-06 19:52 | 42.89214 | -1.87196 | 37020 ft | 456 kts | 145° |
| 2026-05-06 19:52 | 42.84226 | -1.81834 | 37018 ft | 456 kts | 145° |
| 2026-05-06 19:53 | 42.79238 | -1.76478 | 37022 ft | 457 kts | 146° |
| 2026-05-06 19:53 | 42.74122 | -1.71383 | 37014 ft | 452 kts | 155° |
| 2026-05-06 19:54 | 42.71293 | -1.69766 | 37017 ft | 444 kts | 168° |
| 2026-05-06 19:54 | 42.68284 | -1.68906 | 37024 ft | 440 kts | 175° |
| 2026-05-06 19:54 | 42.62232 | -1.67666 | 37020 ft | 439 kts | 176° |
| 2026-05-06 19:55 | 42.56197 | -1.66372 | 37020 ft | 439 kts | 175° |
| 2026-05-06 19:55 | 42.50164 | -1.65039 | 37012 ft | 439 kts | 175° |
| 2026-05-06 19:56 | 42.44140 | -1.63712 | 37010 ft | 438 kts | 175° |
| 2026-05-06 19:56 | 42.38124 | -1.62395 | 37003 ft | 438 kts | 175° |
| 2026-05-06 19:57 | 42.32092 | -1.61070 | 37001 ft | 438 kts | 175° |
| 2026-05-06 19:57 | 42.26117 | -1.59753 | 37002 ft | 438 kts | 175° |
| 2026-05-06 19:58 | 42.20101 | -1.58433 | 37001 ft | 438 kts | 175° |
| 2026-05-06 19:58 | 42.14090 | -1.57120 | 36992 ft | 437 kts | 176° |
| 2026-05-06 19:59 | 42.08106 | -1.55814 | 36991 ft | 438 kts | 175° |
| 2026-05-06 19:59 | 42.02088 | -1.54496 | 36991 ft | 438 kts | 175° |
| 2026-05-06 20:00 | 41.96081 | -1.53189 | 36991 ft | 437 kts | 176° |
| 2026-05-06 20:00 | 41.90077 | -1.51881 | 36989 ft | 436 kts | 176° |
| 2026-05-06 20:01 | 41.84084 | -1.50588 | 36988 ft | 436 kts | 176° |
| 2026-05-06 20:01 | 41.78086 | -1.49291 | 36982 ft | 436 kts | 176° |
| 2026-05-06 20:02 | 41.72133 | -1.48003 | 36980 ft | 436 kts | 176° |
| 2026-05-06 20:02 | 41.66146 | -1.46714 | 36976 ft | 435 kts | 176° |
| 2026-05-06 20:03 | 41.60163 | -1.45427 | 36971 ft | 435 kts | 176° |
| 2026-05-06 20:03 | 41.54186 | -1.44140 | 36970 ft | 435 kts | 176° |
| 2026-05-06 20:04 | 41.48221 | -1.42862 | 36969 ft | 434 kts | 176° |
| 2026-05-06 20:04 | 41.42262 | -1.41582 | 36971 ft | 433 kts | 176° |
| 2026-05-06 20:05 | 41.36314 | -1.40311 | 36972 ft | 433 kts | 176° |
| 2026-05-06 20:05 | 41.30357 | -1.39041 | 36970 ft | 433 kts | 176° |
| 2026-05-06 20:06 | 41.24457 | -1.37784 | 36973 ft | 432 kts | 176° |
| 2026-05-06 20:06 | 41.18525 | -1.36525 | 36979 ft | 431 kts | 176° |
| 2026-05-06 20:07 | 41.12604 | -1.35272 | 36988 ft | 430 kts | 176° |
| 2026-05-06 20:07 | 41.06696 | -1.34023 | 36989 ft | 429 kts | 177° |
| 2026-05-06 20:08 | 41.00787 | -1.32778 | 36992 ft | 429 kts | 177° |
| 2026-05-06 20:08 | 40.94896 | -1.31535 | 36990 ft | 428 kts | 177° |
| 2026-05-06 20:09 | 40.89058 | -1.30310 | 36990 ft | 427 kts | 177° |
| 2026-05-06 20:09 | 40.83192 | -1.28863 | 36991 ft | 430 kts | 174° |
| 2026-05-06 20:10 | 40.77346 | -1.27258 | 36990 ft | 428 kts | 174° |
| 2026-05-06 20:10 | 40.71498 | -1.25653 | 36989 ft | 428 kts | 175° |
| 2026-05-06 20:11 | 40.65672 | -1.24061 | 36990 ft | 427 kts | 175° |
| 2026-05-06 20:11 | 40.59844 | -1.22483 | 36990 ft | 427 kts | 175° |
| 2026-05-06 20:12 | 40.54054 | -1.20923 | 36990 ft | 427 kts | 175° |
| 2026-05-06 20:12 | 40.48234 | -1.19346 | 36992 ft | 427 kts | 175° |
| 2026-05-06 20:13 | 40.42405 | -1.17780 | 36991 ft | 426 kts | 175° |
| 2026-05-06 20:13 | 40.36595 | -1.16210 | 36988 ft | 426 kts | 175° |
| 2026-05-06 20:14 | 40.30790 | -1.14644 | 36989 ft | 426 kts | 175° |
| 2026-05-06 20:14 | 40.25024 | -1.13097 | 36992 ft | 425 kts | 175° |
| 2026-05-06 20:15 | 40.19227 | -1.11547 | 36989 ft | 425 kts | 175° |
| 2026-05-06 20:15 | 40.13426 | -1.09988 | 36990 ft | 425 kts | 175° |
| 2026-05-06 20:16 | 40.07625 | -1.08433 | 36984 ft | 426 kts | 175° |
| 2026-05-06 20:16 | 40.01828 | -1.06884 | 36983 ft | 425 kts | 175° |
| 2026-05-06 20:17 | 39.96040 | -1.05345 | 36979 ft | 422 kts | 175° |
| 2026-05-06 20:17 | 39.93190 | -1.04583 | 36601 ft | 416 kts | 176° |
| 2026-05-06 20:17 | 39.90352 | -1.03832 | 35840 ft | 417 kts | 176° |
| 2026-05-06 20:18 | 39.87538 | -1.03087 | 35180 ft | 419 kts | 176° |
| 2026-05-06 20:18 | 39.84681 | -1.02329 | 34516 ft | 420 kts | 176° |
| 2026-05-06 20:18 | 39.81813 | -1.01570 | 33819 ft | 421 kts | 177° |
| 2026-05-06 20:18 | 39.78942 | -1.00809 | 33123 ft | 421 kts | 177° |
| 2026-05-06 20:19 | 39.76067 | -1.00049 | 32417 ft | 423 kts | 176° |
| 2026-05-06 20:19 | 39.73169 | -0.99285 | 31741 ft | 426 kts | 176° |
| 2026-05-06 20:19 | 39.70246 | -0.98584 | 31367 ft | 427 kts | 179° |
| 2026-05-06 20:19 | 39.67289 | -0.98117 | 31083 ft | 429 kts | 181° |
| 2026-05-06 20:20 | 39.64314 | -0.97683 | 30819 ft | 431 kts | 181° |
| 2026-05-06 20:20 | 39.61326 | -0.97249 | 30567 ft | 432 kts | 181° |
| 2026-05-06 20:20 | 39.58326 | -0.96807 | 30319 ft | 434 kts | 180° |
| 2026-05-06 20:20 | 39.55328 | -0.96365 | 30072 ft | 435 kts | 180° |
| 2026-05-06 20:21 | 39.52311 | -0.95922 | 29820 ft | 437 kts | 180° |
| 2026-05-06 20:21 | 39.49304 | -0.95477 | 29307 ft | 433 kts | 180° |
| 2026-05-06 20:21 | 39.46305 | -0.95036 | 28624 ft | 431 kts | 180° |
| 2026-05-06 20:21 | 39.43368 | -0.94606 | 27944 ft | 430 kts | 180° |
| 2026-05-06 20:22 | 39.40399 | -0.94171 | 27244 ft | 429 kts | 180° |
| 2026-05-06 20:22 | 39.37423 | -0.93737 | 26527 ft | 429 kts | 179° |
| 2026-05-06 20:22 | 39.34469 | -0.93306 | 25813 ft | 427 kts | 179° |
| 2026-05-06 20:22 | 39.31518 | -0.92874 | 25117 ft | 424 kts | 179° |
| 2026-05-06 20:23 | 39.28584 | -0.92447 | 24418 ft | 423 kts | 179° |
| 2026-05-06 20:23 | 39.25660 | -0.92021 | 23719 ft | 422 kts | 179° |
| 2026-05-06 20:23 | 39.22753 | -0.91598 | 23022 ft | 420 kts | 178° |
| 2026-05-06 20:23 | 39.19855 | -0.91177 | 22330 ft | 418 kts | 178° |
| 2026-05-06 20:24 | 39.16997 | -0.90762 | 21631 ft | 417 kts | 178° |
| 2026-05-06 20:24 | 39.14129 | -0.90345 | 20926 ft | 413 kts | 178° |
| 2026-05-06 20:24 | 39.11286 | -0.89933 | 20249 ft | 408 kts | 177° |
| 2026-05-06 20:24 | 39.08474 | -0.89531 | 19594 ft | 403 kts | 177° |
| 2026-05-06 20:25 | 39.05707 | -0.89136 | 18961 ft | 398 kts | 177° |
| 2026-05-06 20:25 | 39.02972 | -0.88742 | 18364 ft | 392 kts | 176° |
| 2026-05-06 20:25 | 39.00284 | -0.88351 | 17790 ft | 386 kts | 176° |
| 2026-05-06 20:25 | 38.97635 | -0.87968 | 17206 ft | 381 kts | 176° |
| 2026-05-06 20:26 | 38.95894 | -0.87713 | 16826 ft | 378 kts | 176° |
| 2026-05-06 20:26 | 38.93303 | -0.87336 | 16258 ft | 373 kts | 175° |
| 2026-05-06 20:26 | 38.90730 | -0.86967 | 15703 ft | 372 kts | 175° |
| 2026-05-06 20:26 | 38.88160 | -0.86599 | 15169 ft | 372 kts | 175° |
| 2026-05-06 20:27 | 38.85577 | -0.86224 | 14638 ft | 374 kts | 175° |
| 2026-05-06 20:27 | 38.82986 | -0.85850 | 14068 ft | 376 kts | 175° |
| 2026-05-06 20:27 | 38.80384 | -0.85475 | 13509 ft | 377 kts | 175° |
| 2026-05-06 20:27 | 38.77783 | -0.85099 | 12979 ft | 374 kts | 174° |
| 2026-05-06 20:28 | 38.75225 | -0.84727 | 12461 ft | 366 kts | 174° |
| 2026-05-06 20:28 | 38.72708 | -0.84365 | 11921 ft | 361 kts | 174° |
| 2026-05-06 20:28 | 38.70228 | -0.84009 | 11393 ft | 356 kts | 174° |
| 2026-05-06 20:28 | 38.67818 | -0.83664 | 11011 ft | 347 kts | 174° |
| 2026-05-06 20:29 | 38.65467 | -0.83327 | 10760 ft | 333 kts | 174° |
| 2026-05-06 20:29 | 38.63217 | -0.83004 | 10564 ft | 318 kts | 174° |
| 2026-05-06 20:29 | 38.61060 | -0.82696 | 10391 ft | 304 kts | 174° |
| 2026-05-06 20:29 | 38.59001 | -0.82403 | 10236 ft | 291 kts | 174° |
| 2026-05-06 20:30 | 38.57033 | -0.82123 | 10094 ft | 278 kts | 174° |
| 2026-05-06 20:30 | 38.53407 | -0.82489 | 9750 ft | 255 kts | 209° |
| 2026-05-06 20:30 | 38.52111 | -0.84010 | 9365 ft | 255 kts | 230° |
| 2026-05-06 20:31 | 38.51009 | -0.85792 | 8975 ft | 255 kts | 229° |
| 2026-05-06 20:31 | 38.49844 | -0.87467 | 8586 ft | 254 kts | 224° |
| 2026-05-06 20:31 | 38.48583 | -0.89041 | 8199 ft | 252 kts | 220° |
| 2026-05-06 20:31 | 38.47262 | -0.90490 | 7875 ft | 248 kts | 217° |
| 2026-05-06 20:32 | 38.45896 | -0.91810 | 7565 ft | 244 kts | 214° |
| 2026-05-06 20:32 | 38.44484 | -0.93022 | 7246 ft | 245 kts | 211° |
| 2026-05-06 20:32 | 38.43022 | -0.94145 | 6928 ft | 245 kts | 208° |
| 2026-05-06 20:32 | 38.41523 | -0.95163 | 6609 ft | 242 kts | 205° |
| 2026-05-06 20:33 | 38.40010 | -0.96056 | 6295 ft | 238 kts | 202° |
| 2026-05-06 20:33 | 38.38477 | -0.96844 | 6001 ft | 236 kts | 199° |
| 2026-05-06 20:33 | 38.36896 | -0.97271 | 5742 ft | 230 kts | 177° |
| 2026-05-06 20:33 | 38.35385 | -0.96677 | 5523 ft | 231 kts | 148° |
| 2026-05-06 20:34 | 38.34156 | -0.95480 | 5469 ft | 214 kts | 135° |
| 2026-05-06 20:34 | 38.33374 | -0.93951 | 5376 ft | 205 kts | 108° |
| 2026-05-06 20:34 | 38.33098 | -0.92170 | 5088 ft | 205 kts | 98° |
| 2026-05-06 20:34 | 38.32895 | -0.90372 | 4739 ft | 205 kts | 98° |
| 2026-05-06 20:35 | 38.32684 | -0.88568 | 4492 ft | 206 kts | 97° |
| 2026-05-06 20:35 | 38.32509 | -0.86805 | 4325 ft | 197 kts | 101° |
| 2026-05-06 20:35 | 38.32284 | -0.85127 | 4357 ft | 191 kts | 101° |
| 2026-05-06 20:35 | 38.32055 | -0.83460 | 4199 ft | 190 kts | 101° |
| 2026-05-06 20:36 | 38.31826 | -0.81806 | 3960 ft | 189 kts | 102° |
| 2026-05-06 20:36 | 38.31598 | -0.80157 | 3701 ft | 189 kts | 102° |
| 2026-05-06 20:36 | 38.31370 | -0.78519 | 3447 ft | 187 kts | 102° |
| 2026-05-06 20:36 | 38.31146 | -0.76904 | 3187 ft | 187 kts | 102° |
| 2026-05-06 20:37 | 38.30920 | -0.75277 | 2934 ft | 186 kts | 101° |
| 2026-05-06 20:37 | 38.30696 | -0.73670 | 2682 ft | 182 kts | 101° |
| 2026-05-06 20:37 | 38.30478 | -0.72101 | 2431 ft | 178 kts | 101° |
| 2026-05-06 20:37 | 38.30266 | -0.70573 | 2196 ft | 173 kts | 101° |
| 2026-05-06 20:38 | 38.30060 | -0.69092 | 1998 ft | 165 kts | 100° |
| 2026-05-06 20:38 | 38.29866 | -0.67705 | 1778 ft | 154 kts | 99° |
| 2026-05-06 20:38 | 38.29686 | -0.66412 | 1568 ft | 144 kts | 99° |
| 2026-05-06 20:38 | 38.29518 | -0.65198 | 1381 ft | 138 kts | 99° |
| 2026-05-06 20:39 | 38.29351 | -0.63998 | 1197 ft | 137 kts | 99° |
| 2026-05-06 20:39 | 38.29185 | -0.62801 | 1014 ft | 137 kts | 99° |
| 2026-05-06 20:39 | 38.29022 | -0.61605 | 831 ft | 137 kts | 99° |
| 2026-05-06 20:39 | 38.28860 | -0.60408 | 654 ft | 137 kts | 99° |
| 2026-05-06 20:40 | 38.28699 | -0.59208 | 477 ft | 137 kts | 99° |
| 2026-05-06 20:40 | 38.28539 | -0.58055 | 291 ft | 137 kts | 99° |
| 2026-05-06 20:40 | 38.28355 | -0.56833 | 146 ft | 132 kts | 95° |
| 2026-05-06 20:40 | 38.28219 | -0.55811 | 109 ft | 85 kts | 99° |
| 2026-05-06 20:41 | 38.28157 | -0.55375 | 95 ft | 36 kts | 100° |
| 2026-05-06 20:41 | 38.28124 | -0.55127 | 90 ft | 23 kts | 99° |
| 2026-05-06 20:41 | 38.28139 | -0.54960 | 87 ft | 14 kts | 75° |
| 2026-05-06 20:41 | 38.28160 | -0.54835 | 73 ft | 15 kts | 79° |
| 2026-05-06 20:42 | 38.28185 | -0.54763 | 75 ft | 1 kts | 66° |
| 2026-05-06 20:42 | 38.28185 | -0.54762 | 75 ft | 1 kts | 65° |
| 2026-05-06 20:42 | 38.28193 | -0.54744 | 74 ft | 4 kts | 60° |
| 2026-05-06 20:42 | 38.28227 | -0.54729 | 65 ft | 8 kts | 341° |
| 2026-05-06 20:43 | 38.28255 | -0.54809 | 67 ft | 13 kts | 279° |
| 2026-05-06 20:43 | 38.28271 | -0.54940 | 75 ft | 17 kts | 279° |
| 2026-05-06 20:43 | 38.28295 | -0.55110 | 85 ft | 22 kts | 281° |
| 2026-05-06 20:43 | 38.28321 | -0.55305 | 94 ft | 17 kts | 279° |
| 2026-05-06 20:44 | 38.28345 | -0.55471 | 99 ft | 21 kts | 279° |
| 2026-05-06 20:44 | 38.28391 | -0.55599 | 105 ft | 17 kts | 346° |
| 2026-05-06 20:44 | 38.28504 | -0.55637 | 106 ft | 19 kts | 297° |
| 2026-05-06 20:44 | 38.28526 | -0.55779 | 109 ft | 13 kts | 288° |
| 2026-05-06 20:45 | 38.28595 | -0.55788 | 109 ft | 12 kts | 9° |
| 2026-05-06 20:45 | 38.28599 | -0.55787 | 109 ft | 0 kts | 12° |